sensor_id;sensor_type;location;lat;lon;timestamp;P1;durP1;ratioP1;P2;durP2;ratioP2
2386;SDS011;49473;50.772;8.768;2022-07-29T00:01:34;2.03;;;1.37;;
2386;SDS011;49473;50.772;8.768;2022-07-29T00:04:01;2.73;;;1.83;;
2386;SDS011;49473;50.772;8.768;2022-07-29T00:06:28;2.30;;;1.40;;
2386;SDS011;49473;50.772;8.768;2022-07-29T00:08:55;3.00;;;1.87;;
2386;SDS011;49473;50.772;8.768;2022-07-29T00:11:22;2.20;;;1.20;;
2386;SDS011;49473;50.772;8.768;2022-07-29T00:13:48;2.17;;;1.50;;
2386;SDS011;49473;50.772;8.768;2022-07-29T00:16:15;3.30;;;1.60;;
2386;SDS011;49473;50.772;8.768;2022-07-29T00:18:43;1.77;;;1.37;;
2386;SDS011;49473;50.772;8.768;2022-07-29T00:21:10;4.33;;;1.30;;
2386;SDS011;49473;50.772;8.768;2022-07-29T00:23:37;2.07;;;1.53;;
2386;SDS011;49473;50.772;8.768;2022-07-29T00:26:03;2.03;;;1.70;;
2386;SDS011;49473;50.772;8.768;2022-07-29T00:28:30;1.77;;;1.43;;
2386;SDS011;49473;50.772;8.768;2022-07-29T00:30:57;4.47;;;1.90;;
2386;SDS011;49473;50.772;8.768;2022-07-29T00:33:24;3.43;;;1.43;;
2386;SDS011;49473;50.772;8.768;2022-07-29T00:35:52;2.73;;;1.67;;
2386;SDS011;49473;50.772;8.768;2022-07-29T00:38:18;2.80;;;1.40;;
2386;SDS011;49473;50.772;8.768;2022-07-29T00:40:46;2.70;;;1.43;;
2386;SDS011;49473;50.772;8.768;2022-07-29T00:43:13;5.30;;;1.77;;
2386;SDS011;49473;50.772;8.768;2022-07-29T00:45:40;3.80;;;1.70;;
2386;SDS011;49473;50.772;8.768;2022-07-29T00:48:07;2.70;;;1.87;;
2386;SDS011;49473;50.772;8.768;2022-07-29T00:50:34;3.77;;;1.80;;
2386;SDS011;49473;50.772;8.768;2022-07-29T00:53:04;2.50;;;1.40;;
2386;SDS011;49473;50.772;8.768;2022-07-29T00:55:33;5.47;;;1.73;;
2386;SDS011;49473;50.772;8.768;2022-07-29T00:58:01;1.90;;;1.43;;
2386;SDS011;49473;50.772;8.768;2022-07-29T01:00:28;2.50;;;1.40;;
2386;SDS011;49473;50.772;8.768;2022-07-29T01:02:55;2.97;;;1.80;;
2386;SDS011;49473;50.772;8.768;2022-07-29T01:05:22;5.53;;;1.80;;
2386;SDS011;49473;50.772;8.768;2022-07-29T01:07:51;5.60;;;1.90;;
2386;SDS011;49473;50.772;8.768;2022-07-29T01:10:20;1.60;;;1.50;;
2386;SDS011;49473;50.772;8.768;2022-07-29T01:12:49;1.60;;;1.50;;
2386;SDS011;49473;50.772;8.768;2022-07-29T01:15:17;1.73;;;1.63;;
2386;SDS011;49473;50.772;8.768;2022-07-29T01:17:44;1.50;;;1.40;;
2386;SDS011;49473;50.772;8.768;2022-07-29T01:20:17;1.83;;;1.57;;
2386;SDS011;49473;50.772;8.768;2022-07-29T01:22:55;5.93;;;1.60;;
2386;SDS011;49473;50.772;8.768;2022-07-29T01:26:03;3.57;;;1.83;;
2386;SDS011;49473;50.772;8.768;2022-07-29T01:28:45;2.30;;;1.60;;
2386;SDS011;49473;50.772;8.768;2022-07-29T01:31:18;2.30;;;1.43;;
2386;SDS011;49473;50.772;8.768;2022-07-29T01:33:52;4.00;;;1.57;;
2386;SDS011;49473;50.772;8.768;2022-07-29T01:36:25;2.50;;;1.70;;
2386;SDS011;49473;50.772;8.768;2022-07-29T01:38:58;3.10;;;1.60;;
2386;SDS011;49473;50.772;8.768;2022-07-29T01:41:31;2.00;;;1.43;;
2386;SDS011;49473;50.772;8.768;2022-07-29T01:44:03;2.73;;;1.67;;
2386;SDS011;49473;50.772;8.768;2022-07-29T01:46:40;2.03;;;1.63;;
2386;SDS011;49473;50.772;8.768;2022-07-29T01:49:09;5.63;;;1.50;;
2386;SDS011;49473;50.772;8.768;2022-07-29T01:51:41;1.70;;;1.60;;
2386;SDS011;49473;50.772;8.768;2022-07-29T01:54:12;2.57;;;1.80;;
2386;SDS011;49473;50.772;8.768;2022-07-29T01:56:44;6.60;;;1.90;;
2386;SDS011;49473;50.772;8.768;2022-07-29T01:59:17;3.63;;;1.63;;
2386;SDS011;49473;50.772;8.768;2022-07-29T02:01:45;2.13;;;1.50;;
2386;SDS011;49473;50.772;8.768;2022-07-29T02:04:14;2.77;;;1.77;;
2386;SDS011;49473;50.772;8.768;2022-07-29T02:06:43;2.63;;;1.50;;
2386;SDS011;49473;50.772;8.768;2022-07-29T02:09:11;3.70;;;1.33;;
2386;SDS011;49473;50.772;8.768;2022-07-29T02:11:40;3.90;;;1.60;;
2386;SDS011;49473;50.772;8.768;2022-07-29T02:14:12;1.50;;;1.20;;
2386;SDS011;49473;50.772;8.768;2022-07-29T02:16:43;3.20;;;1.60;;
2386;SDS011;49473;50.772;8.768;2022-07-29T02:19:11;5.50;;;1.70;;
2386;SDS011;49473;50.772;8.768;2022-07-29T02:21:39;1.53;;;1.40;;
2386;SDS011;49473;50.772;8.768;2022-07-29T02:24:07;3.00;;;1.77;;
2386;SDS011;49473;50.772;8.768;2022-07-29T02:26:37;3.70;;;1.60;;
2386;SDS011;49473;50.772;8.768;2022-07-29T02:29:06;3.27;;;1.70;;
2386;SDS011;49473;50.772;8.768;2022-07-29T02:31:34;2.30;;;1.70;;
2386;SDS011;49473;50.772;8.768;2022-07-29T02:34:05;3.77;;;1.30;;
2386;SDS011;49473;50.772;8.768;2022-07-29T02:36:34;1.77;;;1.63;;
2386;SDS011;49473;50.772;8.768;2022-07-29T02:39:02;1.70;;;1.60;;
2386;SDS011;49473;50.772;8.768;2022-07-29T02:41:32;2.10;;;1.47;;
2386;SDS011;49473;50.772;8.768;2022-07-29T02:44:05;2.53;;;2.03;;
2386;SDS011;49473;50.772;8.768;2022-07-29T02:46:35;2.47;;;1.67;;
2386;SDS011;49473;50.772;8.768;2022-07-29T02:49:06;2.60;;;1.40;;
2386;SDS011;49473;50.772;8.768;2022-07-29T02:51:40;2.50;;;1.80;;
2386;SDS011;49473;50.772;8.768;2022-07-29T02:54:09;2.13;;;1.70;;
2386;SDS011;49473;50.772;8.768;2022-07-29T02:56:40;4.80;;;2.03;;
2386;SDS011;49473;50.772;8.768;2022-07-29T02:59:10;1.87;;;1.20;;
2386;SDS011;49473;50.772;8.768;2022-07-29T03:01:40;2.53;;;1.47;;
2386;SDS011;49473;50.772;8.768;2022-07-29T03:04:11;3.37;;;1.70;;
2386;SDS011;49473;50.772;8.768;2022-07-29T03:06:39;3.13;;;1.63;;
2386;SDS011;49473;50.772;8.768;2022-07-29T03:09:08;2.10;;;1.40;;
2386;SDS011;49473;50.772;8.768;2022-07-29T03:11:37;2.90;;;1.70;;
2386;SDS011;49473;50.772;8.768;2022-07-29T03:14:04;3.03;;;1.90;;
2386;SDS011;49473;50.772;8.768;2022-07-29T03:16:32;2.10;;;1.60;;
2386;SDS011;49473;50.772;8.768;2022-07-29T03:19:01;3.27;;;1.77;;
2386;SDS011;49473;50.772;8.768;2022-07-29T03:21:30;2.57;;;1.70;;
2386;SDS011;49473;50.772;8.768;2022-07-29T03:23:57;3.43;;;2.23;;
2386;SDS011;49473;50.772;8.768;2022-07-29T03:26:24;2.63;;;2.13;;
2386;SDS011;49473;50.772;8.768;2022-07-29T03:28:51;4.07;;;1.80;;
2386;SDS011;49473;50.772;8.768;2022-07-29T03:31:17;3.03;;;1.70;;
2386;SDS011;49473;50.772;8.768;2022-07-29T03:33:44;2.00;;;1.80;;
2386;SDS011;49473;50.772;8.768;2022-07-29T03:36:11;2.63;;;1.90;;
2386;SDS011;49473;50.772;8.768;2022-07-29T03:38:39;1.90;;;1.43;;
2386;SDS011;49473;50.772;8.768;2022-07-29T03:41:09;1.90;;;1.80;;
2386;SDS011;49473;50.772;8.768;2022-07-29T03:43:38;4.10;;;1.77;;
2386;SDS011;49473;50.772;8.768;2022-07-29T03:46:07;3.03;;;1.63;;
2386;SDS011;49473;50.772;8.768;2022-07-29T03:48:36;1.80;;;1.70;;
2386;SDS011;49473;50.772;8.768;2022-07-29T03:51:05;2.80;;;1.80;;
2386;SDS011;49473;50.772;8.768;2022-07-29T03:53:32;6.07;;;1.90;;
2386;SDS011;49473;50.772;8.768;2022-07-29T03:56:01;3.83;;;1.80;;
2386;SDS011;49473;50.772;8.768;2022-07-29T03:58:29;4.20;;;1.60;;
2386;SDS011;49473;50.772;8.768;2022-07-29T04:00:57;1.73;;;1.63;;
2386;SDS011;49473;50.772;8.768;2022-07-29T04:03:24;1.60;;;1.50;;
2386;SDS011;49473;50.772;8.768;2022-07-29T04:05:58;3.20;;;1.73;;
2386;SDS011;49473;50.772;8.768;2022-07-29T04:08:26;1.80;;;1.50;;
2386;SDS011;49473;50.772;8.768;2022-07-29T04:10:53;2.70;;;1.63;;
2386;SDS011;49473;50.772;8.768;2022-07-29T04:13:21;4.23;;;1.50;;
2386;SDS011;49473;50.772;8.768;2022-07-29T04:15:48;5.27;;;1.83;;
2386;SDS011;49473;50.772;8.768;2022-07-29T04:18:14;2.47;;;1.90;;
2386;SDS011;49473;50.772;8.768;2022-07-29T04:20:41;3.77;;;1.67;;
2386;SDS011;49473;50.772;8.768;2022-07-29T04:23:08;3.97;;;1.73;;
2386;SDS011;49473;50.772;8.768;2022-07-29T04:25:36;1.63;;;1.53;;
2386;SDS011;49473;50.772;8.768;2022-07-29T04:28:04;2.17;;;1.97;;
2386;SDS011;49473;50.772;8.768;2022-07-29T04:30:33;2.50;;;1.60;;
2386;SDS011;49473;50.772;8.768;2022-07-29T04:33:00;2.90;;;1.60;;
2386;SDS011;49473;50.772;8.768;2022-07-29T04:35:28;2.97;;;1.80;;
2386;SDS011;49473;50.772;8.768;2022-07-29T04:37:55;2.03;;;1.90;;
2386;SDS011;49473;50.772;8.768;2022-07-29T04:40:22;4.17;;;2.07;;
2386;SDS011;49473;50.772;8.768;2022-07-29T04:42:49;2.40;;;1.90;;
2386;SDS011;49473;50.772;8.768;2022-07-29T04:45:16;2.33;;;1.90;;
2386;SDS011;49473;50.772;8.768;2022-07-29T04:47:44;3.67;;;2.00;;
2386;SDS011;49473;50.772;8.768;2022-07-29T04:50:11;5.77;;;2.10;;
2386;SDS011;49473;50.772;8.768;2022-07-29T04:52:38;2.00;;;1.63;;
2386;SDS011;49473;50.772;8.768;2022-07-29T04:55:05;2.10;;;2.00;;
2386;SDS011;49473;50.772;8.768;2022-07-29T04:57:32;4.40;;;1.90;;
2386;SDS011;49473;50.772;8.768;2022-07-29T04:59:59;3.00;;;1.77;;
2386;SDS011;49473;50.772;8.768;2022-07-29T05:02:26;2.77;;;1.60;;
2386;SDS011;49473;50.772;8.768;2022-07-29T05:04:54;2.17;;;1.97;;
2386;SDS011;49473;50.772;8.768;2022-07-29T05:07:20;4.60;;;2.67;;
2386;SDS011;49473;50.772;8.768;2022-07-29T05:09:47;3.90;;;2.40;;
2386;SDS011;49473;50.772;8.768;2022-07-29T05:12:14;4.27;;;2.70;;
2386;SDS011;49473;50.772;8.768;2022-07-29T05:14:41;3.90;;;2.43;;
2386;SDS011;49473;50.772;8.768;2022-07-29T05:17:07;3.93;;;2.43;;
2386;SDS011;49473;50.772;8.768;2022-07-29T05:19:34;4.40;;;2.67;;
2386;SDS011;49473;50.772;8.768;2022-07-29T05:22:02;5.10;;;2.60;;
2386;SDS011;49473;50.772;8.768;2022-07-29T05:24:29;3.33;;;2.33;;
2386;SDS011;49473;50.772;8.768;2022-07-29T05:26:56;6.00;;;3.00;;
2386;SDS011;49473;50.772;8.768;2022-07-29T05:29:23;3.40;;;2.30;;
2386;SDS011;49473;50.772;8.768;2022-07-29T05:31:49;5.07;;;3.10;;
2386;SDS011;49473;50.772;8.768;2022-07-29T05:34:17;3.57;;;2.20;;
2386;SDS011;49473;50.772;8.768;2022-07-29T05:36:44;2.27;;;2.10;;
2386;SDS011;49473;50.772;8.768;2022-07-29T05:39:12;2.97;;;2.43;;
2386;SDS011;49473;50.772;8.768;2022-07-29T05:41:39;2.57;;;2.37;;
2386;SDS011;49473;50.772;8.768;2022-07-29T05:44:06;4.63;;;2.50;;
2386;SDS011;49473;50.772;8.768;2022-07-29T05:46:33;2.30;;;2.20;;
2386;SDS011;49473;50.772;8.768;2022-07-29T05:48:59;3.70;;;2.40;;
2386;SDS011;49473;50.772;8.768;2022-07-29T05:51:27;4.30;;;2.50;;
2386;SDS011;49473;50.772;8.768;2022-07-29T05:53:55;3.70;;;2.70;;
2386;SDS011;49473;50.772;8.768;2022-07-29T05:56:23;2.63;;;2.30;;
2386;SDS011;49473;50.772;8.768;2022-07-29T05:58:50;5.10;;;2.30;;
2386;SDS011;49473;50.772;8.768;2022-07-29T06:01:16;3.33;;;2.37;;
2386;SDS011;49473;50.772;8.768;2022-07-29T06:03:43;3.00;;;2.37;;
2386;SDS011;49473;50.772;8.768;2022-07-29T06:06:10;6.07;;;2.83;;
2386;SDS011;49473;50.772;8.768;2022-07-29T06:08:37;2.90;;;2.30;;
2386;SDS011;49473;50.772;8.768;2022-07-29T06:11:05;9.17;;;2.47;;
2386;SDS011;49473;50.772;8.768;2022-07-29T06:13:34;6.73;;;2.60;;
2386;SDS011;49473;50.772;8.768;2022-07-29T06:16:01;5.33;;;2.43;;
2386;SDS011;49473;50.772;8.768;2022-07-29T06:18:28;3.43;;;2.13;;
2386;SDS011;49473;50.772;8.768;2022-07-29T06:20:54;2.37;;;2.17;;
2386;SDS011;49473;50.772;8.768;2022-07-29T06:23:21;6.63;;;3.00;;
2386;SDS011;49473;50.772;8.768;2022-07-29T06:25:48;2.50;;;2.20;;
2386;SDS011;49473;50.772;8.768;2022-07-29T06:28:15;2.57;;;2.33;;
2386;SDS011;49473;50.772;8.768;2022-07-29T06:30:43;3.00;;;2.37;;
2386;SDS011;49473;50.772;8.768;2022-07-29T06:33:15;4.03;;;2.53;;
2386;SDS011;49473;50.772;8.768;2022-07-29T06:35:42;3.87;;;2.23;;
2386;SDS011;49473;50.772;8.768;2022-07-29T06:38:10;2.10;;;2.00;;
2386;SDS011;49473;50.772;8.768;2022-07-29T06:40:40;3.10;;;2.17;;
2386;SDS011;49473;50.772;8.768;2022-07-29T06:43:25;3.33;;;1.93;;
2386;SDS011;49473;50.772;8.768;2022-07-29T06:45:53;3.33;;;1.87;;
2386;SDS011;49473;50.772;8.768;2022-07-29T06:48:20;2.30;;;1.73;;
2386;SDS011;49473;50.772;8.768;2022-07-29T06:50:47;3.23;;;2.07;;
2386;SDS011;49473;50.772;8.768;2022-07-29T06:53:13;2.20;;;1.70;;
2386;SDS011;49473;50.772;8.768;2022-07-29T06:55:40;5.57;;;2.13;;
2386;SDS011;49473;50.772;8.768;2022-07-29T06:58:07;1.60;;;1.50;;
2386;SDS011;49473;50.772;8.768;2022-07-29T07:00:34;5.63;;;2.27;;
2386;SDS011;49473;50.772;8.768;2022-07-29T07:03:03;4.03;;;2.03;;
2386;SDS011;49473;50.772;8.768;2022-07-29T07:05:29;2.43;;;1.93;;
2386;SDS011;49473;50.772;8.768;2022-07-29T07:07:56;2.00;;;1.77;;
2386;SDS011;49473;50.772;8.768;2022-07-29T07:10:23;3.33;;;1.80;;
2386;SDS011;49473;50.772;8.768;2022-07-29T07:12:50;3.80;;;1.77;;
2386;SDS011;49473;50.772;8.768;2022-07-29T07:15:16;5.60;;;1.90;;
2386;SDS011;49473;50.772;8.768;2022-07-29T07:17:46;5.17;;;2.10;;
2386;SDS011;49473;50.772;8.768;2022-07-29T07:20:14;3.30;;;1.77;;
2386;SDS011;49473;50.772;8.768;2022-07-29T07:22:41;3.03;;;2.03;;
2386;SDS011;49473;50.772;8.768;2022-07-29T07:25:08;2.90;;;1.93;;
2386;SDS011;49473;50.772;8.768;2022-07-29T07:27:35;2.17;;;1.93;;
2386;SDS011;49473;50.772;8.768;2022-07-29T07:30:03;3.60;;;2.00;;
2386;SDS011;49473;50.772;8.768;2022-07-29T07:32:31;3.87;;;1.90;;
2386;SDS011;49473;50.772;8.768;2022-07-29T07:34:59;2.47;;;1.90;;
2386;SDS011;49473;50.772;8.768;2022-07-29T07:37:27;3.10;;;2.40;;
2386;SDS011;49473;50.772;8.768;2022-07-29T07:39:54;3.07;;;2.27;;
2386;SDS011;49473;50.772;8.768;2022-07-29T07:42:21;2.97;;;2.27;;
2386;SDS011;49473;50.772;8.768;2022-07-29T07:44:48;3.17;;;1.90;;
2386;SDS011;49473;50.772;8.768;2022-07-29T07:47:15;5.03;;;2.40;;
2386;SDS011;49473;50.772;8.768;2022-07-29T07:49:44;4.77;;;2.37;;
2386;SDS011;49473;50.772;8.768;2022-07-29T07:52:11;2.53;;;2.33;;
2386;SDS011;49473;50.772;8.768;2022-07-29T07:54:39;3.73;;;2.10;;
2386;SDS011;49473;50.772;8.768;2022-07-29T07:57:06;3.73;;;2.00;;
2386;SDS011;49473;50.772;8.768;2022-07-29T07:59:33;2.17;;;1.90;;
2386;SDS011;49473;50.772;8.768;2022-07-29T08:01:59;2.43;;;2.10;;
2386;SDS011;49473;50.772;8.768;2022-07-29T08:04:27;2.00;;;1.80;;
2386;SDS011;49473;50.772;8.768;2022-07-29T08:06:53;3.30;;;2.10;;
2386;SDS011;49473;50.772;8.768;2022-07-29T08:09:20;2.90;;;2.10;;
2386;SDS011;49473;50.772;8.768;2022-07-29T08:11:48;2.93;;;2.37;;
2386;SDS011;49473;50.772;8.768;2022-07-29T08:14:15;2.90;;;2.03;;
2386;SDS011;49473;50.772;8.768;2022-07-29T08:16:42;2.47;;;2.27;;
2386;SDS011;49473;50.772;8.768;2022-07-29T08:19:09;3.50;;;2.70;;
2386;SDS011;49473;50.772;8.768;2022-07-29T08:21:36;2.07;;;1.87;;
2386;SDS011;49473;50.772;8.768;2022-07-29T08:24:03;3.70;;;2.30;;
2386;SDS011;49473;50.772;8.768;2022-07-29T08:26:50;3.87;;;2.30;;
2386;SDS011;49473;50.772;8.768;2022-07-29T08:29:17;7.13;;;2.47;;
2386;SDS011;49473;50.772;8.768;2022-07-29T08:31:44;2.40;;;2.20;;
2386;SDS011;49473;50.772;8.768;2022-07-29T08:34:11;5.43;;;2.10;;
2386;SDS011;49473;50.772;8.768;2022-07-29T08:36:38;2.20;;;2.00;;
2386;SDS011;49473;50.772;8.768;2022-07-29T08:39:05;4.60;;;2.40;;
2386;SDS011;49473;50.772;8.768;2022-07-29T08:41:32;2.10;;;1.90;;
2386;SDS011;49473;50.772;8.768;2022-07-29T08:44:00;3.17;;;2.13;;
2386;SDS011;49473;50.772;8.768;2022-07-29T08:46:27;2.30;;;2.10;;
2386;SDS011;49473;50.772;8.768;2022-07-29T08:48:53;3.33;;;2.33;;
2386;SDS011;49473;50.772;8.768;2022-07-29T08:51:21;2.33;;;2.13;;
2386;SDS011;49473;50.772;8.768;2022-07-29T08:53:49;3.03;;;2.20;;
2386;SDS011;49473;50.772;8.768;2022-07-29T08:56:16;6.73;;;2.20;;
2386;SDS011;49473;50.772;8.768;2022-07-29T08:58:45;1.97;;;1.77;;
2386;SDS011;49473;50.772;8.768;2022-07-29T09:01:16;3.63;;;2.07;;
2386;SDS011;49473;50.772;8.768;2022-07-29T09:03:43;2.90;;;2.60;;
2386;SDS011;49473;50.772;8.768;2022-07-29T09:06:12;2.03;;;1.93;;
2386;SDS011;49473;50.772;8.768;2022-07-29T09:08:40;3.17;;;2.50;;
2386;SDS011;49473;50.772;8.768;2022-07-29T09:11:08;3.20;;;1.80;;
2386;SDS011;49473;50.772;8.768;2022-07-29T09:13:35;2.20;;;2.10;;
2386;SDS011;49473;50.772;8.768;2022-07-29T09:16:02;3.10;;;2.07;;
2386;SDS011;49473;50.772;8.768;2022-07-29T09:18:34;2.43;;;2.23;;
2386;SDS011;49473;50.772;8.768;2022-07-29T09:21:03;6.90;;;2.27;;
2386;SDS011;49473;50.772;8.768;2022-07-29T09:24:03;5.37;;;2.40;;
2386;SDS011;49473;50.772;8.768;2022-07-29T09:26:32;2.60;;;2.40;;
2386;SDS011;49473;50.772;8.768;2022-07-29T09:29:01;2.80;;;2.50;;
2386;SDS011;49473;50.772;8.768;2022-07-29T09:31:35;3.33;;;3.07;;
2386;SDS011;49473;50.772;8.768;2022-07-29T09:34:04;3.20;;;2.90;;
2386;SDS011;49473;50.772;8.768;2022-07-29T09:36:37;3.13;;;2.93;;
2386;SDS011;49473;50.772;8.768;2022-07-29T09:39:05;3.57;;;2.30;;
2386;SDS011;49473;50.772;8.768;2022-07-29T09:41:43;2.63;;;2.43;;
2386;SDS011;49473;50.772;8.768;2022-07-29T09:44:14;2.93;;;2.53;;
2386;SDS011;49473;50.772;8.768;2022-07-29T09:46:52;5.10;;;2.80;;
2386;SDS011;49473;50.772;8.768;2022-07-29T09:49:24;3.37;;;2.47;;
2386;SDS011;49473;50.772;8.768;2022-07-29T09:52:04;2.53;;;2.40;;
2386;SDS011;49473;50.772;8.768;2022-07-29T09:54:32;4.03;;;2.90;;
2386;SDS011;49473;50.772;8.768;2022-07-29T09:57:03;5.57;;;3.10;;
2386;SDS011;49473;50.772;8.768;2022-07-29T09:59:31;3.17;;;2.93;;
2386;SDS011;49473;50.772;8.768;2022-07-29T10:01:58;2.93;;;2.40;;
2386;SDS011;49473;50.772;8.768;2022-07-29T10:04:37;3.10;;;2.80;;
2386;SDS011;49473;50.772;8.768;2022-07-29T10:07:04;3.03;;;2.80;;
2386;SDS011;49473;50.772;8.768;2022-07-29T10:09:31;3.67;;;2.73;;
2386;SDS011;49473;50.772;8.768;2022-07-29T10:12:02;4.37;;;2.90;;
2386;SDS011;49473;50.772;8.768;2022-07-29T10:14:31;4.67;;;2.20;;
2386;SDS011;49473;50.772;8.768;2022-07-29T10:16:59;5.43;;;3.03;;
2386;SDS011;49473;50.772;8.768;2022-07-29T10:19:27;3.17;;;2.40;;
2386;SDS011;49473;50.772;8.768;2022-07-29T10:21:57;2.97;;;2.70;;
2386;SDS011;49473;50.772;8.768;2022-07-29T10:24:26;2.63;;;2.43;;
2386;SDS011;49473;50.772;8.768;2022-07-29T10:26:53;9.70;;;3.13;;
2386;SDS011;49473;50.772;8.768;2022-07-29T10:29:22;3.20;;;2.57;;
2386;SDS011;49473;50.772;8.768;2022-07-29T10:31:51;4.50;;;2.50;;
2386;SDS011;49473;50.772;8.768;2022-07-29T10:34:30;3.00;;;2.70;;
2386;SDS011;49473;50.772;8.768;2022-07-29T10:37:12;3.73;;;2.93;;
2386;SDS011;49473;50.772;8.768;2022-07-29T10:39:50;3.07;;;2.87;;
2386;SDS011;49473;50.772;8.768;2022-07-29T10:42:27;7.10;;;2.47;;
2386;SDS011;49473;50.772;8.768;2022-07-29T10:44:56;2.77;;;2.57;;
2386;SDS011;49473;50.772;8.768;2022-07-29T10:47:23;3.80;;;3.03;;
2386;SDS011;49473;50.772;8.768;2022-07-29T10:49:55;4.57;;;3.20;;
2386;SDS011;49473;50.772;8.768;2022-07-29T10:52:24;3.00;;;2.80;;
2386;SDS011;49473;50.772;8.768;2022-07-29T10:55:25;4.07;;;2.73;;
2386;SDS011;49473;50.772;8.768;2022-07-29T10:58:10;3.93;;;3.00;;
2386;SDS011;49473;50.772;8.768;2022-07-29T11:00:38;3.93;;;3.00;;
2386;SDS011;49473;50.772;8.768;2022-07-29T11:03:04;4.90;;;2.70;;
2386;SDS011;49473;50.772;8.768;2022-07-29T11:05:40;3.50;;;3.20;;
2386;SDS011;49473;50.772;8.768;2022-07-29T11:08:21;3.07;;;2.60;;
2386;SDS011;49473;50.772;8.768;2022-07-29T11:10:50;5.33;;;3.27;;
2386;SDS011;49473;50.772;8.768;2022-07-29T11:16:12;2.40;;;2.20;;
2386;SDS011;49473;50.772;8.768;2022-07-29T11:21:41;2.83;;;2.60;;
2386;SDS011;49473;50.772;8.768;2022-07-29T11:24:13;3.83;;;3.00;;
2386;SDS011;49473;50.772;8.768;2022-07-29T11:26:40;4.00;;;3.27;;
2386;SDS011;49473;50.772;8.768;2022-07-29T11:29:14;3.97;;;2.50;;
2386;SDS011;49473;50.772;8.768;2022-07-29T11:31:45;3.10;;;2.80;;
2386;SDS011;49473;50.772;8.768;2022-07-29T11:34:20;2.73;;;2.53;;
2386;SDS011;49473;50.772;8.768;2022-07-29T11:42:39;2.83;;;2.63;;
2386;SDS011;49473;50.772;8.768;2022-07-29T11:45:11;3.67;;;2.77;;
2386;SDS011;49473;50.772;8.768;2022-07-29T11:47:46;4.57;;;2.50;;
2386;SDS011;49473;50.772;8.768;2022-07-29T11:50:26;2.00;;;1.90;;
2386;SDS011;49473;50.772;8.768;2022-07-29T11:52:55;2.17;;;2.07;;
2386;SDS011;49473;50.772;8.768;2022-07-29T11:55:24;2.80;;;2.20;;
2386;SDS011;49473;50.772;8.768;2022-07-29T11:57:52;2.60;;;2.40;;
2386;SDS011;49473;50.772;8.768;2022-07-29T12:00:21;2.37;;;2.17;;
2386;SDS011;49473;50.772;8.768;2022-07-29T12:02:50;5.70;;;2.93;;
2386;SDS011;49473;50.772;8.768;2022-07-29T12:05:17;2.70;;;2.50;;
2386;SDS011;49473;50.772;8.768;2022-07-29T12:07:45;2.47;;;2.30;;
2386;SDS011;49473;50.772;8.768;2022-07-29T12:10:13;3.40;;;2.50;;
2386;SDS011;49473;50.772;8.768;2022-07-29T12:12:41;2.10;;;1.90;;
2386;SDS011;49473;50.772;8.768;2022-07-29T12:15:12;2.30;;;2.10;;
2386;SDS011;49473;50.772;8.768;2022-07-29T12:17:40;2.40;;;2.30;;
2386;SDS011;49473;50.772;8.768;2022-07-29T12:20:07;3.97;;;2.00;;
2386;SDS011;49473;50.772;8.768;2022-07-29T12:22:34;2.47;;;2.13;;
2386;SDS011;49473;50.772;8.768;2022-07-29T12:25:05;3.67;;;1.93;;
2386;SDS011;49473;50.772;8.768;2022-07-29T12:27:34;2.27;;;2.10;;
2386;SDS011;49473;50.772;8.768;2022-07-29T12:30:04;4.50;;;2.33;;
2386;SDS011;49473;50.772;8.768;2022-07-29T12:32:33;2.30;;;2.10;;
2386;SDS011;49473;50.772;8.768;2022-07-29T12:35:04;2.23;;;2.03;;
2386;SDS011;49473;50.772;8.768;2022-07-29T12:37:32;5.70;;;2.10;;
2386;SDS011;49473;50.772;8.768;2022-07-29T12:40:00;2.70;;;2.30;;
2386;SDS011;49473;50.772;8.768;2022-07-29T12:42:27;2.50;;;2.30;;
2386;SDS011;49473;50.772;8.768;2022-07-29T12:44:54;2.00;;;1.90;;
2386;SDS011;49473;50.772;8.768;2022-07-29T12:47:22;2.43;;;2.33;;
2386;SDS011;49473;50.772;8.768;2022-07-29T12:49:50;2.00;;;1.90;;
2386;SDS011;49473;50.772;8.768;2022-07-29T12:52:33;2.27;;;2.07;;
2386;SDS011;49473;50.772;8.768;2022-07-29T12:55:02;4.90;;;2.50;;
2386;SDS011;49473;50.772;8.768;2022-07-29T12:57:30;1.80;;;1.70;;
2386;SDS011;49473;50.772;8.768;2022-07-29T13:00:05;2.10;;;1.93;;
2386;SDS011;49473;50.772;8.768;2022-07-29T13:02:37;2.27;;;2.07;;
2386;SDS011;49473;50.772;8.768;2022-07-29T13:05:05;2.60;;;2.40;;
2386;SDS011;49473;50.772;8.768;2022-07-29T13:07:34;2.30;;;2.20;;
2386;SDS011;49473;50.772;8.768;2022-07-29T13:10:09;5.80;;;2.30;;
2386;SDS011;49473;50.772;8.768;2022-07-29T13:12:37;2.40;;;2.27;;
2386;SDS011;49473;50.772;8.768;2022-07-29T13:15:12;2.47;;;2.17;;
2386;SDS011;49473;50.772;8.768;2022-07-29T13:17:41;3.50;;;2.40;;
2386;SDS011;49473;50.772;8.768;2022-07-29T13:20:09;2.20;;;2.00;;
2386;SDS011;49473;50.772;8.768;2022-07-29T13:22:39;4.43;;;2.03;;
2386;SDS011;49473;50.772;8.768;2022-07-29T13:25:07;2.10;;;2.00;;
2386;SDS011;49473;50.772;8.768;2022-07-29T13:27:36;2.40;;;2.20;;
2386;SDS011;49473;50.772;8.768;2022-07-29T13:30:05;2.20;;;2.00;;
2386;SDS011;49473;50.772;8.768;2022-07-29T13:32:33;2.57;;;2.37;;
2386;SDS011;49473;50.772;8.768;2022-07-29T13:35:03;2.60;;;2.23;;
2386;SDS011;49473;50.772;8.768;2022-07-29T13:37:32;2.07;;;1.93;;
2386;SDS011;49473;50.772;8.768;2022-07-29T13:39:59;3.60;;;2.70;;
2386;SDS011;49473;50.772;8.768;2022-07-29T13:42:27;2.70;;;2.00;;
2386;SDS011;49473;50.772;8.768;2022-07-29T13:44:54;2.37;;;2.17;;
2386;SDS011;49473;50.772;8.768;2022-07-29T13:47:21;2.77;;;2.57;;
2386;SDS011;49473;50.772;8.768;2022-07-29T13:49:49;2.53;;;2.33;;
2386;SDS011;49473;50.772;8.768;2022-07-29T13:52:18;2.33;;;2.07;;
2386;SDS011;49473;50.772;8.768;2022-07-29T13:54:45;2.20;;;2.10;;
2386;SDS011;49473;50.772;8.768;2022-07-29T13:57:12;2.47;;;2.27;;
2386;SDS011;49473;50.772;8.768;2022-07-29T13:59:39;2.03;;;1.93;;
2386;SDS011;49473;50.772;8.768;2022-07-29T14:02:06;3.40;;;2.70;;
2386;SDS011;49473;50.772;8.768;2022-07-29T14:04:34;2.57;;;2.37;;
2386;SDS011;49473;50.772;8.768;2022-07-29T14:07:01;2.70;;;2.50;;
2386;SDS011;49473;50.772;8.768;2022-07-29T14:09:29;2.47;;;2.33;;
2386;SDS011;49473;50.772;8.768;2022-07-29T14:11:56;2.00;;;1.90;;
2386;SDS011;49473;50.772;8.768;2022-07-29T14:14:23;2.97;;;2.77;;
2386;SDS011;49473;50.772;8.768;2022-07-29T14:16:51;2.53;;;2.30;;
2386;SDS011;49473;50.772;8.768;2022-07-29T14:19:18;2.53;;;2.20;;
2386;SDS011;49473;50.772;8.768;2022-07-29T14:21:45;2.67;;;2.57;;
2386;SDS011;49473;50.772;8.768;2022-07-29T14:24:12;2.70;;;2.50;;
2386;SDS011;49473;50.772;8.768;2022-07-29T14:26:40;2.40;;;2.30;;
2386;SDS011;49473;50.772;8.768;2022-07-29T14:29:07;3.73;;;2.83;;
2386;SDS011;49473;50.772;8.768;2022-07-29T14:31:34;2.70;;;2.50;;
2386;SDS011;49473;50.772;8.768;2022-07-29T14:34:01;3.73;;;2.63;;
2386;SDS011;49473;50.772;8.768;2022-07-29T14:36:28;4.20;;;2.17;;
2386;SDS011;49473;50.772;8.768;2022-07-29T14:38:55;2.40;;;2.20;;
2386;SDS011;49473;50.772;8.768;2022-07-29T14:41:22;2.40;;;2.30;;
2386;SDS011;49473;50.772;8.768;2022-07-29T14:43:51;3.63;;;2.30;;
2386;SDS011;49473;50.772;8.768;2022-07-29T14:46:18;2.33;;;2.13;;
2386;SDS011;49473;50.772;8.768;2022-07-29T14:48:45;2.27;;;2.17;;
2386;SDS011;49473;50.772;8.768;2022-07-29T14:51:12;2.40;;;2.20;;
2386;SDS011;49473;50.772;8.768;2022-07-29T14:53:39;2.63;;;2.43;;
2386;SDS011;49473;50.772;8.768;2022-07-29T14:56:06;2.70;;;2.60;;
2386;SDS011;49473;50.772;8.768;2022-07-29T14:58:33;2.70;;;2.50;;
2386;SDS011;49473;50.772;8.768;2022-07-29T15:01:03;2.40;;;2.23;;
2386;SDS011;49473;50.772;8.768;2022-07-29T15:03:30;3.20;;;2.90;;
2386;SDS011;49473;50.772;8.768;2022-07-29T15:05:57;2.60;;;2.40;;
2386;SDS011;49473;50.772;8.768;2022-07-29T15:08:25;2.90;;;2.70;;
2386;SDS011;49473;50.772;8.768;2022-07-29T15:10:54;3.30;;;2.37;;
2386;SDS011;49473;50.772;8.768;2022-07-29T15:13:22;3.40;;;3.10;;
2386;SDS011;49473;50.772;8.768;2022-07-29T15:15:49;2.93;;;2.73;;
2386;SDS011;49473;50.772;8.768;2022-07-29T15:18:17;3.90;;;2.97;;
2386;SDS011;49473;50.772;8.768;2022-07-29T15:20:45;2.90;;;2.80;;
2386;SDS011;49473;50.772;8.768;2022-07-29T15:23:12;2.60;;;2.50;;